Burns Junction, Oregon
Current Conditions -  °F | °C
As of 8:35 AM on Saturday 25 Oct 2014 (Local Time) from KMAN Reporting Station
Overcast Overcast  
Wind Chill: 36°   Ceiling: 200
Heat Index: 41°   Visibility: 0mi
Dew Point: 41°   Wind: 7mph
Humidity: 100%   Direction: 130°SE
Pressure: 29.84"   Gusts: NA
Location:  42.5961°N, 117.569°W
Report Text: KMAN 251435Z AUTO 13006KT M1/4SM OVC002 05/05 A2984 RMK AO1
Loading
Personal Weather Stations






























Interactive Weather Map
Tropical Storm Tracking
New forecast layout! Learn more

10-Day Weather Forecast

Advertisements
Track Severe Weather on mobile